sensor_id;sensor_type;location;lat;lon;timestamp;P1;durP1;ratioP1;P2;durP2;ratioP2
71317;SDS011;59106;44.706;18.310;2024-03-08T00:00:00;35.97;;;19.67;;
71317;SDS011;59106;44.706;18.310;2024-03-08T00:02:35;37.05;;;20.15;;
71317;SDS011;59106;44.706;18.310;2024-03-08T00:05:05;39.30;;;21.40;;
71317;SDS011;59106;44.706;18.310;2024-03-08T00:07:31;36.42;;;20.30;;
71317;SDS011;59106;44.706;18.310;2024-03-08T00:09:57;35.75;;;20.10;;
71317;SDS011;59106;44.706;18.310;2024-03-08T00:12:23;37.00;;;19.97;;
71317;SDS011;59106;44.706;18.310;2024-03-08T00:14:51;40.87;;;22.67;;
71317;SDS011;59106;44.706;18.310;2024-03-08T00:17:17;38.42;;;21.42;;
71317;SDS011;59106;44.706;18.310;2024-03-08T00:19:43;37.15;;;20.98;;
71317;SDS011;59106;44.706;18.310;2024-03-08T00:22:09;36.72;;;20.48;;
71317;SDS011;59106;44.706;18.310;2024-03-08T00:24:37;36.95;;;19.85;;
71317;SDS011;59106;44.706;18.310;2024-03-08T00:27:03;35.30;;;19.67;;
71317;SDS011;59106;44.706;18.310;2024-03-08T00:29:30;33.55;;;19.02;;
71317;SDS011;59106;44.706;18.310;2024-03-08T00:31:56;34.07;;;18.73;;
71317;SDS011;59106;44.706;18.310;2024-03-08T00:34:23;36.20;;;19.40;;
71317;SDS011;59106;44.706;18.310;2024-03-08T00:36:49;32.13;;;18.52;;
71317;SDS011;59106;44.706;18.310;2024-03-08T00:39:16;32.87;;;18.27;;
71317;SDS011;59106;44.706;18.310;2024-03-08T00:41:41;34.90;;;18.95;;
71317;SDS011;59106;44.706;18.310;2024-03-08T00:44:07;37.83;;;19.95;;
71317;SDS011;59106;44.706;18.310;2024-03-08T00:46:33;35.47;;;19.67;;
71317;SDS011;59106;44.706;18.310;2024-03-08T00:48:59;36.03;;;18.73;;
71317;SDS011;59106;44.706;18.310;2024-03-08T00:51:26;37.17;;;19.55;;
71317;SDS011;59106;44.706;18.310;2024-03-08T00:53:52;35.95;;;19.13;;
71317;SDS011;59106;44.706;18.310;2024-03-08T00:56:18;34.53;;;18.63;;
71317;SDS011;59106;44.706;18.310;2024-03-08T00:58:44;34.65;;;18.27;;
71317;SDS011;59106;44.706;18.310;2024-03-08T01:01:10;34.05;;;18.20;;
71317;SDS011;59106;44.706;18.310;2024-03-08T01:03:36;35.65;;;18.40;;
71317;SDS011;59106;44.706;18.310;2024-03-08T01:06:02;38.73;;;19.60;;
71317;SDS011;59106;44.706;18.310;2024-03-08T01:08:28;37.63;;;19.77;;
71317;SDS011;59106;44.706;18.310;2024-03-08T01:10:54;34.90;;;18.58;;
71317;SDS011;59106;44.706;18.310;2024-03-08T01:13:20;37.28;;;19.98;;
71317;SDS011;59106;44.706;18.310;2024-03-08T01:15:46;36.53;;;19.58;;
71317;SDS011;59106;44.706;18.310;2024-03-08T01:18:12;34.88;;;18.08;;
71317;SDS011;59106;44.706;18.310;2024-03-08T01:20:38;35.40;;;19.30;;
71317;SDS011;59106;44.706;18.310;2024-03-08T01:23:06;36.30;;;19.40;;
71317;SDS011;59106;44.706;18.310;2024-03-08T01:25:35;36.10;;;19.30;;
71317;SDS011;59106;44.706;18.310;2024-03-08T01:28:01;37.77;;;19.50;;
71317;SDS011;59106;44.706;18.310;2024-03-08T01:30:28;36.17;;;19.20;;
71317;SDS011;59106;44.706;18.310;2024-03-08T01:32:53;35.63;;;19.17;;
71317;SDS011;59106;44.706;18.310;2024-03-08T01:35:19;34.67;;;18.75;;
71317;SDS011;59106;44.706;18.310;2024-03-08T01:37:48;34.22;;;18.23;;
71317;SDS011;59106;44.706;18.310;2024-03-08T01:40:15;34.97;;;17.63;;
71317;SDS011;59106;44.706;18.310;2024-03-08T01:42:42;33.05;;;17.70;;
71317;SDS011;59106;44.706;18.310;2024-03-08T01:45:08;34.70;;;17.93;;
71317;SDS011;59106;44.706;18.310;2024-03-08T01:47:34;39.55;;;18.27;;
71317;SDS011;59106;44.706;18.310;2024-03-08T01:50:00;34.92;;;18.02;;
71317;SDS011;59106;44.706;18.310;2024-03-08T01:52:28;33.63;;;17.58;;
71317;SDS011;59106;44.706;18.310;2024-03-08T01:54:57;33.85;;;17.58;;
71317;SDS011;59106;44.706;18.310;2024-03-08T01:57:27;34.05;;;17.48;;
71317;SDS011;59106;44.706;18.310;2024-03-08T01:59:53;41.03;;;19.23;;
71317;SDS011;59106;44.706;18.310;2024-03-08T02:02:21;38.00;;;18.53;;
71317;SDS011;59106;44.706;18.310;2024-03-08T02:04:48;37.10;;;18.27;;
71317;SDS011;59106;44.706;18.310;2024-03-08T02:13:28;38.47;;;19.52;;
71317;SDS011;59106;44.706;18.310;2024-03-08T02:15:54;35.10;;;18.67;;
71317;SDS011;59106;44.706;18.310;2024-03-08T02:18:21;38.00;;;19.58;;
71317;SDS011;59106;44.706;18.310;2024-03-08T02:20:49;42.13;;;21.77;;
71317;SDS011;59106;44.706;18.310;2024-03-08T02:23:15;40.57;;;21.40;;
71317;SDS011;59106;44.706;18.310;2024-03-08T02:25:40;38.25;;;20.42;;
71317;SDS011;59106;44.706;18.310;2024-03-08T02:28:10;41.67;;;21.58;;
71317;SDS011;59106;44.706;18.310;2024-03-08T02:30:36;46.93;;;23.87;;
71317;SDS011;59106;44.706;18.310;2024-03-08T02:33:03;43.53;;;23.23;;
71317;SDS011;59106;44.706;18.310;2024-03-08T02:35:29;43.17;;;22.37;;
71317;SDS011;59106;44.706;18.310;2024-03-08T02:37:55;40.85;;;21.50;;
71317;SDS011;59106;44.706;18.310;2024-03-08T02:40:21;37.40;;;20.38;;
71317;SDS011;59106;44.706;18.310;2024-03-08T02:42:47;40.75;;;20.88;;
71317;SDS011;59106;44.706;18.310;2024-03-08T02:45:13;38.95;;;20.80;;
71317;SDS011;59106;44.706;18.310;2024-03-08T02:47:39;38.70;;;20.10;;
71317;SDS011;59106;44.706;18.310;2024-03-08T02:50:05;37.00;;;20.10;;
71317;SDS011;59106;44.706;18.310;2024-03-08T02:52:34;37.97;;;20.63;;
71317;SDS011;59106;44.706;18.310;2024-03-08T02:55:01;36.95;;;20.17;;
71317;SDS011;59106;44.706;18.310;2024-03-08T02:57:27;36.70;;;20.33;;
71317;SDS011;59106;44.706;18.310;2024-03-08T02:59:53;37.25;;;20.45;;
71317;SDS011;59106;44.706;18.310;2024-03-08T03:02:19;38.53;;;20.48;;
71317;SDS011;59106;44.706;18.310;2024-03-08T03:04:45;44.30;;;23.07;;
71317;SDS011;59106;44.706;18.310;2024-03-08T03:07:11;50.45;;;26.63;;
71317;SDS011;59106;44.706;18.310;2024-03-08T03:09:37;44.58;;;23.70;;
71317;SDS011;59106;44.706;18.310;2024-03-08T03:12:03;40.60;;;21.70;;
71317;SDS011;59106;44.706;18.310;2024-03-08T03:14:28;39.85;;;22.42;;
71317;SDS011;59106;44.706;18.310;2024-03-08T03:16:54;40.78;;;22.33;;
71317;SDS011;59106;44.706;18.310;2024-03-08T03:19:20;37.60;;;20.40;;
71317;SDS011;59106;44.706;18.310;2024-03-08T03:21:46;38.58;;;20.95;;
71317;SDS011;59106;44.706;18.310;2024-03-08T03:24:12;37.50;;;20.48;;
71317;SDS011;59106;44.706;18.310;2024-03-08T03:26:41;37.72;;;20.20;;
71317;SDS011;59106;44.706;18.310;2024-03-08T03:29:09;38.90;;;21.95;;
71317;SDS011;59106;44.706;18.310;2024-03-08T03:31:36;40.88;;;21.75;;
71317;SDS011;59106;44.706;18.310;2024-03-08T03:34:02;39.73;;;21.63;;
71317;SDS011;59106;44.706;18.310;2024-03-08T03:36:29;39.93;;;21.47;;
71317;SDS011;59106;44.706;18.310;2024-03-08T03:38:55;40.40;;;21.93;;
71317;SDS011;59106;44.706;18.310;2024-03-08T03:41:36;38.60;;;21.17;;
71317;SDS011;59106;44.706;18.310;2024-03-08T03:44:02;33.00;;;17.95;;
71317;SDS011;59106;44.706;18.310;2024-03-08T03:46:28;31.80;;;18.30;;
71317;SDS011;59106;44.706;18.310;2024-03-08T03:48:54;35.55;;;20.25;;
71317;SDS011;59106;44.706;18.310;2024-03-08T03:51:21;35.40;;;20.65;;
71317;SDS011;59106;44.706;18.310;2024-03-08T03:53:47;30.50;;;17.47;;
71317;SDS011;59106;44.706;18.310;2024-03-08T03:56:13;34.05;;;19.35;;
71317;SDS011;59106;44.706;18.310;2024-03-08T03:58:38;28.08;;;16.00;;
71317;SDS011;59106;44.706;18.310;2024-03-08T04:01:05;27.13;;;15.45;;
71317;SDS011;59106;44.706;18.310;2024-03-08T04:03:31;24.50;;;14.15;;
71317;SDS011;59106;44.706;18.310;2024-03-08T04:05:57;24.13;;;14.20;;
71317;SDS011;59106;44.706;18.310;2024-03-08T04:08:23;24.80;;;14.05;;
71317;SDS011;59106;44.706;18.310;2024-03-08T04:10:51;23.73;;;13.77;;
71317;SDS011;59106;44.706;18.310;2024-03-08T04:13:17;24.60;;;14.23;;
71317;SDS011;59106;44.706;18.310;2024-03-08T04:15:43;23.10;;;13.68;;
71317;SDS011;59106;44.706;18.310;2024-03-08T04:18:09;25.77;;;15.23;;
71317;SDS011;59106;44.706;18.310;2024-03-08T04:20:35;27.00;;;15.43;;
71317;SDS011;59106;44.706;18.310;2024-03-08T04:23:02;26.57;;;16.20;;
71317;SDS011;59106;44.706;18.310;2024-03-08T04:25:28;25.60;;;15.20;;
71317;SDS011;59106;44.706;18.310;2024-03-08T04:27:53;25.20;;;15.60;;
71317;SDS011;59106;44.706;18.310;2024-03-08T04:30:19;27.75;;;16.05;;
71317;SDS011;59106;44.706;18.310;2024-03-08T04:32:46;28.95;;;17.77;;
71317;SDS011;59106;44.706;18.310;2024-03-08T04:35:13;27.90;;;16.27;;
71317;SDS011;59106;44.706;18.310;2024-03-08T04:37:40;29.58;;;18.08;;
71317;SDS011;59106;44.706;18.310;2024-03-08T04:40:06;35.10;;;19.58;;
71317;SDS011;59106;44.706;18.310;2024-03-08T04:42:32;29.15;;;16.90;;
71317;SDS011;59106;44.706;18.310;2024-03-08T04:44:59;30.03;;;17.83;;
71317;SDS011;59106;44.706;18.310;2024-03-08T04:47:25;29.17;;;17.50;;
71317;SDS011;59106;44.706;18.310;2024-03-08T04:49:51;26.70;;;15.93;;
71317;SDS011;59106;44.706;18.310;2024-03-08T04:52:17;26.80;;;16.33;;
71317;SDS011;59106;44.706;18.310;2024-03-08T04:54:43;26.13;;;16.23;;
71317;SDS011;59106;44.706;18.310;2024-03-08T04:57:10;30.10;;;18.48;;
71317;SDS011;59106;44.706;18.310;2024-03-08T04:59:36;26.73;;;16.50;;
71317;SDS011;59106;44.706;18.310;2024-03-08T05:02:02;27.23;;;15.88;;
71317;SDS011;59106;44.706;18.310;2024-03-08T05:04:28;24.85;;;15.15;;
71317;SDS011;59106;44.706;18.310;2024-03-08T05:06:54;24.40;;;14.70;;
71317;SDS011;59106;44.706;18.310;2024-03-08T05:09:21;24.38;;;14.75;;
71317;SDS011;59106;44.706;18.310;2024-03-08T05:11:46;28.55;;;17.48;;
71317;SDS011;59106;44.706;18.310;2024-03-08T05:14:13;28.05;;;17.40;;
71317;SDS011;59106;44.706;18.310;2024-03-08T05:16:45;30.25;;;18.08;;
71317;SDS011;59106;44.706;18.310;2024-03-08T05:19:14;29.90;;;17.35;;
71317;SDS011;59106;44.706;18.310;2024-03-08T05:21:42;25.27;;;15.77;;
71317;SDS011;59106;44.706;18.310;2024-03-08T05:24:09;26.20;;;16.00;;
71317;SDS011;59106;44.706;18.310;2024-03-08T05:26:35;29.77;;;17.40;;
71317;SDS011;59106;44.706;18.310;2024-03-08T05:29:03;43.78;;;23.80;;
71317;SDS011;59106;44.706;18.310;2024-03-08T05:31:30;47.57;;;26.13;;
71317;SDS011;59106;44.706;18.310;2024-03-08T05:33:56;52.22;;;29.27;;
71317;SDS011;59106;44.706;18.310;2024-03-08T05:36:22;45.03;;;26.30;;
71317;SDS011;59106;44.706;18.310;2024-03-08T05:38:48;42.80;;;24.48;;
71317;SDS011;59106;44.706;18.310;2024-03-08T05:41:16;43.53;;;24.67;;
71317;SDS011;59106;44.706;18.310;2024-03-08T05:43:42;40.67;;;23.50;;
71317;SDS011;59106;44.706;18.310;2024-03-08T05:46:09;73.35;;;32.70;;
71317;SDS011;59106;44.706;18.310;2024-03-08T05:48:37;77.85;;;36.38;;
71317;SDS011;59106;44.706;18.310;2024-03-08T05:51:03;62.40;;;34.42;;
71317;SDS011;59106;44.706;18.310;2024-03-08T05:53:29;57.13;;;31.95;;
71317;SDS011;59106;44.706;18.310;2024-03-08T05:55:58;64.32;;;34.28;;
71317;SDS011;59106;44.706;18.310;2024-03-08T05:58:24;62.37;;;35.30;;
71317;SDS011;59106;44.706;18.310;2024-03-08T06:00:50;70.75;;;37.97;;
71317;SDS011;59106;44.706;18.310;2024-03-08T06:03:16;71.15;;;39.97;;
71317;SDS011;59106;44.706;18.310;2024-03-08T06:05:43;62.53;;;35.65;;
71317;SDS011;59106;44.706;18.310;2024-03-08T06:08:10;67.30;;;38.03;;
71317;SDS011;59106;44.706;18.310;2024-03-08T06:10:37;54.88;;;32.08;;
71317;SDS011;59106;44.706;18.310;2024-03-08T06:13:03;51.10;;;30.58;;
71317;SDS011;59106;44.706;18.310;2024-03-08T06:15:29;47.55;;;27.65;;
71317;SDS011;59106;44.706;18.310;2024-03-08T06:17:56;44.72;;;26.42;;
71317;SDS011;59106;44.706;18.310;2024-03-08T06:20:22;45.72;;;28.05;;
71317;SDS011;59106;44.706;18.310;2024-03-08T06:22:52;45.27;;;27.03;;
71317;SDS011;59106;44.706;18.310;2024-03-08T06:25:17;54.40;;;28.23;;
71317;SDS011;59106;44.706;18.310;2024-03-08T06:27:44;51.50;;;28.65;;
71317;SDS011;59106;44.706;18.310;2024-03-08T06:30:11;41.47;;;24.67;;
71317;SDS011;59106;44.706;18.310;2024-03-08T06:32:37;47.00;;;27.70;;
71317;SDS011;59106;44.706;18.310;2024-03-08T06:35:03;32.45;;;19.17;;
71317;SDS011;59106;44.706;18.310;2024-03-08T06:37:32;27.75;;;16.40;;
71317;SDS011;59106;44.706;18.310;2024-03-08T06:39:58;27.15;;;15.65;;
71317;SDS011;59106;44.706;18.310;2024-03-08T06:42:24;29.20;;;16.80;;
71317;SDS011;59106;44.706;18.310;2024-03-08T06:44:49;39.13;;;23.57;;
71317;SDS011;59106;44.706;18.310;2024-03-08T06:47:16;86.68;;;40.63;;
71317;SDS011;59106;44.706;18.310;2024-03-08T06:49:45;101.75;;;51.75;;
71317;SDS011;59106;44.706;18.310;2024-03-08T06:52:11;123.18;;;56.85;;
71317;SDS011;59106;44.706;18.310;2024-03-08T06:54:37;75.78;;;39.00;;
71317;SDS011;59106;44.706;18.310;2024-03-08T06:57:03;63.50;;;33.65;;
71317;SDS011;59106;44.706;18.310;2024-03-08T06:59:29;73.20;;;37.93;;
71317;SDS011;59106;44.706;18.310;2024-03-08T07:01:55;60.77;;;32.93;;
71317;SDS011;59106;44.706;18.310;2024-03-08T07:04:21;74.10;;;39.33;;
71317;SDS011;59106;44.706;18.310;2024-03-08T07:06:50;68.68;;;37.40;;
71317;SDS011;59106;44.706;18.310;2024-03-08T07:09:16;59.13;;;34.37;;
71317;SDS011;59106;44.706;18.310;2024-03-08T07:11:45;54.97;;;33.05;;
71317;SDS011;59106;44.706;18.310;2024-03-08T07:14:12;43.10;;;26.27;;
71317;SDS011;59106;44.706;18.310;2024-03-08T07:16:40;39.67;;;24.20;;
71317;SDS011;59106;44.706;18.310;2024-03-08T07:19:07;45.53;;;27.50;;
71317;SDS011;59106;44.706;18.310;2024-03-08T07:21:33;54.60;;;32.47;;
71317;SDS011;59106;44.706;18.310;2024-03-08T07:23:59;56.45;;;33.08;;
71317;SDS011;59106;44.706;18.310;2024-03-08T07:26:25;42.47;;;26.48;;
71317;SDS011;59106;44.706;18.310;2024-03-08T07:28:50;45.83;;;27.97;;
71317;SDS011;59106;44.706;18.310;2024-03-08T07:31:17;54.55;;;31.98;;
71317;SDS011;59106;44.706;18.310;2024-03-08T07:33:52;55.83;;;33.20;;
71317;SDS011;59106;44.706;18.310;2024-03-08T07:36:19;52.83;;;30.67;;
71317;SDS011;59106;44.706;18.310;2024-03-08T07:38:44;57.70;;;31.87;;
71317;SDS011;59106;44.706;18.310;2024-03-08T07:41:14;54.75;;;32.28;;
71317;SDS011;59106;44.706;18.310;2024-03-08T07:43:40;49.40;;;29.60;;
71317;SDS011;59106;44.706;18.310;2024-03-08T07:46:06;51.00;;;33.13;;
71317;SDS011;59106;44.706;18.310;2024-03-08T07:48:35;52.40;;;33.92;;
71317;SDS011;59106;44.706;18.310;2024-03-08T07:51:02;48.33;;;29.77;;
71317;SDS011;59106;44.706;18.310;2024-03-08T07:53:31;48.47;;;29.05;;
71317;SDS011;59106;44.706;18.310;2024-03-08T07:55:57;47.53;;;29.13;;
71317;SDS011;59106;44.706;18.310;2024-03-08T07:58:23;49.35;;;31.42;;
71317;SDS011;59106;44.706;18.310;2024-03-08T08:00:49;48.33;;;29.17;;
71317;SDS011;59106;44.706;18.310;2024-03-08T08:03:15;48.00;;;29.27;;
71317;SDS011;59106;44.706;18.310;2024-03-08T08:05:42;48.03;;;29.58;;
71317;SDS011;59106;44.706;18.310;2024-03-08T08:08:08;47.43;;;29.53;;
71317;SDS011;59106;44.706;18.310;2024-03-08T08:10:36;53.20;;;30.83;;
71317;SDS011;59106;44.706;18.310;2024-03-08T08:13:02;52.45;;;30.52;;
71317;SDS011;59106;44.706;18.310;2024-03-08T08:15:30;48.27;;;28.70;;
71317;SDS011;59106;44.706;18.310;2024-03-08T08:17:56;47.40;;;28.60;;
71317;SDS011;59106;44.706;18.310;2024-03-08T08:20:22;45.53;;;27.85;;
71317;SDS011;59106;44.706;18.310;2024-03-08T08:22:48;42.50;;;26.83;;
71317;SDS011;59106;44.706;18.310;2024-03-08T08:25:14;46.22;;;27.85;;
71317;SDS011;59106;44.706;18.310;2024-03-08T08:27:41;39.47;;;24.13;;
71317;SDS011;59106;44.706;18.310;2024-03-08T08:30:10;40.50;;;24.83;;
71317;SDS011;59106;44.706;18.310;2024-03-08T08:32:37;38.03;;;23.53;;
71317;SDS011;59106;44.706;18.310;2024-03-08T08:35:03;40.22;;;24.75;;
71317;SDS011;59106;44.706;18.310;2024-03-08T08:37:30;39.13;;;24.10;;
71317;SDS011;59106;44.706;18.310;2024-03-08T08:39:57;44.50;;;26.38;;
71317;SDS011;59106;44.706;18.310;2024-03-08T08:42:23;45.97;;;27.10;;
71317;SDS011;59106;44.706;18.310;2024-03-08T08:44:50;42.83;;;24.17;;
71317;SDS011;59106;44.706;18.310;2024-03-08T08:47:16;42.72;;;23.83;;
71317;SDS011;59106;44.706;18.310;2024-03-08T08:49:45;40.65;;;24.08;;
71317;SDS011;59106;44.706;18.310;2024-03-08T08:52:12;42.33;;;26.03;;
71317;SDS011;59106;44.706;18.310;2024-03-08T08:54:38;31.30;;;19.80;;
71317;SDS011;59106;44.706;18.310;2024-03-08T08:57:04;34.20;;;21.80;;
71317;SDS011;59106;44.706;18.310;2024-03-08T08:59:33;24.75;;;15.00;;
71317;SDS011;59106;44.706;18.310;2024-03-08T09:02:01;28.80;;;17.58;;
71317;SDS011;59106;44.706;18.310;2024-03-08T09:04:29;28.80;;;17.67;;
71317;SDS011;59106;44.706;18.310;2024-03-08T09:06:56;37.45;;;22.88;;
71317;SDS011;59106;44.706;18.310;2024-03-08T09:09:22;41.42;;;25.00;;
71317;SDS011;59106;44.706;18.310;2024-03-08T09:11:48;44.60;;;28.92;;
71317;SDS011;59106;44.706;18.310;2024-03-08T09:14:15;26.70;;;16.23;;
71317;SDS011;59106;44.706;18.310;2024-03-08T09:16:41;67.45;;;52.90;;
71317;SDS011;59106;44.706;18.310;2024-03-08T09:19:07;33.20;;;21.33;;
71317;SDS011;59106;44.706;18.310;2024-03-08T09:21:33;21.60;;;14.60;;
71317;SDS011;59106;44.706;18.310;2024-03-08T09:24:00;16.80;;;10.48;;
71317;SDS011;59106;44.706;18.310;2024-03-08T09:26:26;19.48;;;12.93;;
71317;SDS011;59106;44.706;18.310;2024-03-08T09:28:52;24.23;;;14.80;;
71317;SDS011;59106;44.706;18.310;2024-03-08T09:31:20;15.57;;;9.13;;
71317;SDS011;59106;44.706;18.310;2024-03-08T09:33:46;18.25;;;10.85;;
71317;SDS011;59106;44.706;18.310;2024-03-08T09:36:13;21.95;;;13.13;;
71317;SDS011;59106;44.706;18.310;2024-03-08T09:38:40;23.42;;;13.88;;
71317;SDS011;59106;44.706;18.310;2024-03-08T09:41:06;19.65;;;12.45;;
71317;SDS011;59106;44.706;18.310;2024-03-08T09:43:32;27.85;;;16.35;;
71317;SDS011;59106;44.706;18.310;2024-03-08T09:45:58;19.02;;;11.52;;
71317;SDS011;59106;44.706;18.310;2024-03-08T09:48:25;16.90;;;10.05;;
71317;SDS011;59106;44.706;18.310;2024-03-08T09:50:51;15.73;;;9.95;;
71317;SDS011;59106;44.706;18.310;2024-03-08T09:53:18;18.08;;;10.20;;
71317;SDS011;59106;44.706;18.310;2024-03-08T09:55:45;14.77;;;9.00;;
71317;SDS011;59106;44.706;18.310;2024-03-08T09:58:12;18.30;;;11.00;;
71317;SDS011;59106;44.706;18.310;2024-03-08T10:00:56;20.98;;;13.75;;
71317;SDS011;59106;44.706;18.310;2024-03-08T10:03:28;22.40;;;13.40;;
71317;SDS011;59106;44.706;18.310;2024-03-08T10:05:57;24.38;;;15.05;;
71317;SDS011;59106;44.706;18.310;2024-03-08T10:08:27;25.85;;;12.73;;
71317;SDS011;59106;44.706;18.310;2024-03-08T10:10:56;17.63;;;10.85;;
71317;SDS011;59106;44.706;18.310;2024-03-08T10:13:26;18.30;;;10.45;;
71317;SDS011;59106;44.706;18.310;2024-03-08T10:15:53;20.08;;;11.70;;
71317;SDS011;59106;44.706;18.310;2024-03-08T10:18:19;21.98;;;14.15;;
71317;SDS011;59106;44.706;18.310;2024-03-08T10:21:01;30.63;;;18.50;;
71317;SDS011;59106;44.706;18.310;2024-03-08T10:23:30;25.65;;;14.30;;
71317;SDS011;59106;44.706;18.310;2024-03-08T10:25:56;144.60;;;96.68;;
71317;SDS011;59106;44.706;18.310;2024-03-08T10:28:24;25.55;;;15.90;;
71317;SDS011;59106;44.706;18.310;2024-03-08T10:30:55;23.55;;;14.65;;
71317;SDS011;59106;44.706;18.310;2024-03-08T10:33:21;22.13;;;13.35;;
71317;SDS011;59106;44.706;18.310;2024-03-08T10:35:47;24.00;;;16.13;;
71317;SDS011;59106;44.706;18.310;2024-03-08T10:38:13;17.13;;;9.27;;
71317;SDS011;59106;44.706;18.310;2024-03-08T10:40:41;27.17;;;12.98;;
71317;SDS011;59106;44.706;18.310;2024-03-08T10:43:10;23.98;;;14.20;;
71317;SDS011;59106;44.706;18.310;2024-03-08T10:45:40;36.28;;;19.23;;
71317;SDS011;59106;44.706;18.310;2024-03-08T10:50:41;29.33;;;18.73;;
71317;SDS011;59106;44.706;18.310;2024-03-08T10:53:11;21.07;;;13.77;;
71317;SDS011;59106;44.706;18.310;2024-03-08T10:55:40;21.60;;;13.20;;
71317;SDS011;59106;44.706;18.310;2024-03-08T10:58:06;24.33;;;14.70;;
71317;SDS011;59106;44.706;18.310;2024-03-08T11:00:33;24.52;;;15.32;;
71317;SDS011;59106;44.706;18.310;2024-03-08T11:03:00;23.00;;;14.00;;
71317;SDS011;59106;44.706;18.310;2024-03-08T11:05:36;24.65;;;14.88;;
71317;SDS011;59106;44.706;18.310;2024-03-08T11:08:16;28.43;;;16.90;;
71317;SDS011;59106;44.706;18.310;2024-03-08T11:10:53;23.85;;;14.05;;
71317;SDS011;59106;44.706;18.310;2024-03-08T11:16:01;28.40;;;17.43;;
71317;SDS011;59106;44.706;18.310;2024-03-08T11:18:35;29.85;;;17.75;;
71317;SDS011;59106;44.706;18.310;2024-03-08T11:21:04;26.07;;;17.10;;
71317;SDS011;59106;44.706;18.310;2024-03-08T11:23:38;30.60;;;18.60;;
71317;SDS011;59106;44.706;18.310;2024-03-08T11:26:18;26.60;;;16.40;;
71317;SDS011;59106;44.706;18.310;2024-03-08T11:28:44;27.63;;;17.10;;
71317;SDS011;59106;44.706;18.310;2024-03-08T11:33:36;24.48;;;15.40;;
71317;SDS011;59106;44.706;18.310;2024-03-08T11:36:11;29.20;;;18.75;;
71317;SDS011;59106;44.706;18.310;2024-03-08T11:38:44;26.42;;;15.95;;
71317;SDS011;59106;44.706;18.310;2024-03-08T11:41:14;58.88;;;34.90;;
71317;SDS011;59106;44.706;18.310;2024-03-08T11:43:41;26.67;;;16.25;;
71317;SDS011;59106;44.706;18.310;2024-03-08T11:46:10;24.70;;;15.37;;
71317;SDS011;59106;44.706;18.310;2024-03-08T11:48:39;25.10;;;14.87;;
71317;SDS011;59106;44.706;18.310;2024-03-08T11:51:08;21.33;;;13.90;;
71317;SDS011;59106;44.706;18.310;2024-03-08T11:53:34;28.63;;;17.90;;
71317;SDS011;59106;44.706;18.310;2024-03-08T11:56:06;39.40;;;26.33;;
71317;SDS011;59106;44.706;18.310;2024-03-08T11:58:32;30.20;;;19.00;;
71317;SDS011;59106;44.706;18.310;2024-03-08T12:01:02;27.13;;;16.47;;
71317;SDS011;59106;44.706;18.310;2024-03-08T12:03:30;28.63;;;19.08;;
71317;SDS011;59106;44.706;18.310;2024-03-08T12:06:02;28.30;;;15.90;;
71317;SDS011;59106;44.706;18.310;2024-03-08T12:08:32;25.73;;;16.27;;
71317;SDS011;59106;44.706;18.310;2024-03-08T12:10:58;28.27;;;17.52;;
71317;SDS011;59106;44.706;18.310;2024-03-08T12:13:27;24.10;;;15.40;;
71317;SDS011;59106;44.706;18.310;2024-03-08T12:15:58;22.67;;;13.93;;
71317;SDS011;59106;44.706;18.310;2024-03-08T12:18:25;24.60;;;14.90;;
71317;SDS011;59106;44.706;18.310;2024-03-08T12:20:52;23.08;;;13.98;;
71317;SDS011;59106;44.706;18.310;2024-03-08T12:23:29;27.75;;;16.73;;
71317;SDS011;59106;44.706;18.310;2024-03-08T12:25:55;31.80;;;19.80;;
71317;SDS011;59106;44.706;18.310;2024-03-08T12:28:22;28.85;;;17.17;;
71317;SDS011;59106;44.706;18.310;2024-03-08T12:30:49;28.00;;;17.57;;
71317;SDS011;59106;44.706;18.310;2024-03-08T12:33:17;32.95;;;20.15;;
71317;SDS011;59106;44.706;18.310;2024-03-08T12:35:50;25.17;;;14.43;;
71317;SDS011;59106;44.706;18.310;2024-03-08T12:38:16;26.10;;;16.63;;
71317;SDS011;59106;44.706;18.310;2024-03-08T12:40:42;18.60;;;11.53;;
71317;SDS011;59106;44.706;18.310;2024-03-08T12:43:08;20.05;;;12.02;;
71317;SDS011;59106;44.706;18.310;2024-03-08T12:45:33;25.65;;;14.10;;
71317;SDS011;59106;44.706;18.310;2024-03-08T12:48:00;23.67;;;13.35;;
71317;SDS011;59106;44.706;18.310;2024-03-08T12:50:25;22.43;;;13.33;;
71317;SDS011;59106;44.706;18.310;2024-03-08T12:52:51;25.38;;;14.25;;
71317;SDS011;59106;44.706;18.310;2024-03-08T12:55:23;27.90;;;15.45;;
71317;SDS011;59106;44.706;18.310;2024-03-08T12:57:49;23.92;;;13.32;;
71317;SDS011;59106;44.706;18.310;2024-03-08T13:00:15;23.02;;;12.93;;
71317;SDS011;59106;44.706;18.310;2024-03-08T13:02:49;21.85;;;12.60;;
71317;SDS011;59106;44.706;18.310;2024-03-08T13:05:18;23.47;;;12.60;;
71317;SDS011;59106;44.706;18.310;2024-03-08T13:07:44;21.92;;;12.52;;
71317;SDS011;59106;44.706;18.310;2024-03-08T13:10:13;21.85;;;13.30;;
71317;SDS011;59106;44.706;18.310;2024-03-08T13:12:42;24.83;;;13.30;;
71317;SDS011;59106;44.706;18.310;2024-03-08T13:15:08;20.15;;;12.25;;
71317;SDS011;59106;44.706;18.310;2024-03-08T13:17:37;25.52;;;14.80;;
71317;SDS011;59106;44.706;18.310;2024-03-08T13:20:07;20.95;;;12.30;;
71317;SDS011;59106;44.706;18.310;2024-03-08T13:22:33;24.10;;;14.93;;
71317;SDS011;59106;44.706;18.310;2024-03-08T13:24:59;27.75;;;13.73;;
71317;SDS011;59106;44.706;18.310;2024-03-08T13:27:27;28.98;;;15.32;;
71317;SDS011;59106;44.706;18.310;2024-03-08T13:29:53;44.92;;;19.95;;
71317;SDS011;59106;44.706;18.310;2024-03-08T13:32:19;22.50;;;12.93;;
71317;SDS011;59106;44.706;18.310;2024-03-08T13:34:48;31.33;;;13.68;;
71317;SDS011;59106;44.706;18.310;2024-03-08T13:37:16;20.15;;;11.55;;
71317;SDS011;59106;44.706;18.310;2024-03-08T13:39:42;19.75;;;11.18;;
71317;SDS011;59106;44.706;18.310;2024-03-08T13:42:14;23.02;;;12.88;;
71317;SDS011;59106;44.706;18.310;2024-03-08T13:44:47;25.30;;;12.83;;
71317;SDS011;59106;44.706;18.310;2024-03-08T13:47:17;50.80;;;24.40;;
71317;SDS011;59106;44.706;18.310;2024-03-08T13:49:43;57.67;;;25.80;;
71317;SDS011;59106;44.706;18.310;2024-03-08T13:52:12;41.67;;;20.58;;
71317;SDS011;59106;44.706;18.310;2024-03-08T13:54:40;34.85;;;18.52;;
71317;SDS011;59106;44.706;18.310;2024-03-08T13:57:06;32.33;;;17.25;;
71317;SDS011;59106;44.706;18.310;2024-03-08T13:59:33;27.33;;;17.48;;
71317;SDS011;59106;44.706;18.310;2024-03-08T14:02:01;21.70;;;12.40;;
71317;SDS011;59106;44.706;18.310;2024-03-08T14:04:30;21.23;;;11.63;;
71317;SDS011;59106;44.706;18.310;2024-03-08T14:06:56;27.87;;;13.17;;
71317;SDS011;59106;44.706;18.310;2024-03-08T14:09:25;21.50;;;12.20;;
71317;SDS011;59106;44.706;18.310;2024-03-08T14:11:51;22.73;;;13.77;;
71317;SDS011;59106;44.706;18.310;2024-03-08T14:14:21;29.57;;;17.07;;
71317;SDS011;59106;44.706;18.310;2024-03-08T14:16:49;21.45;;;12.77;;
71317;SDS011;59106;44.706;18.310;2024-03-08T14:19:19;42.97;;;23.92;;
71317;SDS011;59106;44.706;18.310;2024-03-08T14:21:44;44.75;;;21.52;;